»·PEaware :: N815SD KSNA-KAVX

N815SD :: KSNA-KAVX

FLIGHT INFORMATION

Flight Status: Arrived
Operator: Privately registered:
United States
More flights under this callsign
Pilot: Sam D. (11311)
Aircraft: PILATUS PC-12 EAGLE
(PC12)
More flights by this aircraft type
Origin: KSNA John Wayne-Orange Co
United States
Destination: KAVX Catalina
United States
More flights between these airports :: More routes between these airports
Route: SLI V21 SXC
File this flight plan on PilotEdge
Remarks: for the I-7
Altitude:
(Current/Filed)
4,000ft
Speed:
(Current/Filed)
210kts
Departed: 15-Apr-18 07:02 PM
Arrived: 15-Apr-18 07:29 PM
Distance/Time
Traveled:
32nm/0:27
Distance/Time
To Go:
Arrived

Flight Plot

Page will automatically refresh every two minutes.


Map Options




Map Legend


Flown Route
Filed Route
Departure Airport
Arrival Airport
Navaid (VOR, NDB)
Fix

Horizontal Profiles

Position Reports

Time Latitude Longitude Heading Altitude Ground
Speed
15-Apr-18 18:37 33.671841 -117.867124 210 60ft 0kts
15-Apr-18 18:38 33.671841 -117.867124 210 60ft 0kts
15-Apr-18 18:39 33.671841 -117.867124 210 60ft 0kts
15-Apr-18 18:40 33.671841 -117.867124 210 60ft 0kts
15-Apr-18 18:41 33.671841 -117.867124 210 60ft 0kts
15-Apr-18 18:42 33.671841 -117.867124 210 60ft 0kts
15-Apr-18 18:43 33.671841 -117.867124 210 60ft 0kts
15-Apr-18 18:44 33.671841 -117.867124 210 60ft 0kts
15-Apr-18 18:45 33.671841 -117.867124 211 60ft 0kts
15-Apr-18 18:46 33.671841 -117.867124 211 60ft 0kts
15-Apr-18 18:47 33.671841 -117.867124 211 60ft 0kts
15-Apr-18 18:48 33.671841 -117.867124 211 60ft 0kts
15-Apr-18 18:49 33.671841 -117.867124 210 60ft 0kts
15-Apr-18 18:50 33.671841 -117.867124 211 60ft 0kts
15-Apr-18 18:51 33.671841 -117.867124 211 60ft 0kts
15-Apr-18 18:52 33.671785 -117.867513 301 60ft 5kts
15-Apr-18 18:53 33.671800 -117.867541 307 60ft 0kts
15-Apr-18 18:54 33.672647 -117.867802 32 60ft 13kts
15-Apr-18 18:55 33.675625 -117.866135 30 60ft 18kts
15-Apr-18 18:56 33.679715 -117.863532 28 60ft 11kts
15-Apr-18 18:57 33.679980 -117.863644 299 60ft 0kts
15-Apr-18 18:58 33.679980 -117.863644 299 60ft 0kts
15-Apr-18 18:59 33.679980 -117.863644 299 60ft 0kts
15-Apr-18 19:00 33.680142 -117.864112 264 60ft 6kts
15-Apr-18 19:01 33.670808 -117.869967 210 303ft 100kts
15-Apr-18 19:02 33.644741 -117.900838 231 1815ft 140kts
15-Apr-18 19:03 33.616606 -117.942970 231 2665ft 165kts
15-Apr-18 19:04 33.588819 -117.984627 231 3655ft 156kts
15-Apr-18 19:05 33.561745 -118.025257 231 4006ft 164kts
15-Apr-18 19:06 33.532358 -118.069572 232 4003ft 172kts
15-Apr-18 19:07 33.504176 -118.112057 232 4002ft 166kts
15-Apr-18 19:08 33.476179 -118.154132 232 4002ft 162kts
15-Apr-18 19:09 33.448135 -118.196252 231 4002ft 161kts
15-Apr-18 19:10 33.421585 -118.238232 247 4030ft 158kts
15-Apr-18 19:11 33.407051 -118.287928 251 3963ft 151kts
15-Apr-18 19:12 33.394220 -118.332903 250 3963ft 136kts
15-Apr-18 19:13 33.381962 -118.375730 251 3964ft 138kts
15-Apr-18 19:14 33.369386 -118.419767 252 3965ft 141kts
15-Apr-18 19:15 33.396692 -118.431655 34 3968ft 154kts
15-Apr-18 19:16 33.433645 -118.412033 5 3838ft 152kts
15-Apr-18 19:17 33.477994 -118.405121 5 3381ft 166kts
15-Apr-18 19:18 33.516295 -118.421185 333 3359ft 148kts
15-Apr-18 19:19 33.539155 -118.395714 122 3368ft 126kts
15-Apr-18 19:20 33.507424 -118.394625 195 2934ft 142kts
15-Apr-18 19:21 33.465199 -118.404454 191 2290ft 162kts
15-Apr-18 19:22 33.425545 -118.412865 216 2261ft 129kts
15-Apr-18 19:23 33.407672 -118.450174 263 2251ft 132kts
15-Apr-18 19:24 33.402629 -118.460674 87 2086ft 137kts
15-Apr-18 19:25 33.412312 -118.422936 53 2067ft 111kts
15-Apr-18 19:26 33.420261 -118.395035 163 1828ft 90kts
15-Apr-18 19:27 33.405731 -118.414524 237 1606ft 72kts
15-Apr-18 19:28 33.402361 -118.419531 51 1606ft 0kts
15-Apr-18 19:29 33.403123 -118.418215 55 1606ft 11kts
15-Apr-18 19:30 33.403570 -118.415655 149 1606ft 0kts
15-Apr-18 19:31 33.403570 -118.415655 149 1606ft 0kts
15-Apr-18 19:32 33.403570 -118.415656 149 1606ft 0kts
15-Apr-18 19:33 33.403570 -118.415656 149 1606ft 0kts
15-Apr-18 19:34 33.403570 -118.415656 149 1606ft 0kts
15-Apr-18 19:35 33.403570 -118.415656 149 1606ft 0kts
15-Apr-18 19:36 33.403570 -118.415656 149 1606ft 0kts
15-Apr-18 19:37 33.403570 -118.415656 149 1606ft 0kts
15-Apr-18 19:38 33.403570 -118.415656 149 1606ft 0kts
15-Apr-18 19:39 33.403570 -118.415656 149 1606ft 0kts
15-Apr-18 19:40 33.403570 -118.415656 149 1606ft 0kts
15-Apr-18 19:41 33.403570 -118.415656 149 1606ft 0kts
15-Apr-18 19:42 33.403570 -118.415656 149 1606ft 0kts

Navigation Log

Ident Type
1. KSNA Airport
2. SLI Navaid
3. SXC Navaid
4. KAVX Airport